Vail Homes, New Jersey
Current Conditions -  °F | °C
As of 2:15 PM on Friday 21 Nov 2014 (Local Time) from KBLM Reporting Station
Few Clouds Few Clouds  
Wind Chill: 26°   Ceiling: Unl
Heat Index: 36°   Visibility: 10mi
Dew Point:   Wind: 16mph
Humidity: 33%   Direction: 300°WNW
Pressure: 30.33"   Gusts: 24mph
Location:  40.2996°N, 74.074°W
Report Text: KBLM 211915Z AUTO 30014G21KT 10SM FEW065 02/M13 A3033 RMK AO1
Loading
Personal Weather Stations






























Interactive Weather Map New forecast layout! Learn more

10-Day Weather Forecast

Advertisements
Track Severe Weather on mobile